Time;durP1;ratioP1;P1;durP2;ratioP2;P2;SDS_P1;SDS_P2;PMS_P1;PMS_P2;Temp;Humidity;BMP_temperature;BMP_pressure;BME280_temperature;BME280_humidity;BME280_pressure;Samples;Min_cycle;Max_cycle;Signal;HPM_P1;HPM_P2
2021/08/23 00:00:05;;;;;;;3.35;2.58;;;;;;;;;;4973562;28;20051;-82
2021/08/23 00:02:31;;;;;;;3.53;2.05;;;;;;;;;;4974492;28;20119;-81
2021/08/23 00:04:57;;;;;;;2.97;2.10;;;;;;;;;;4957292;28;20142;-82
2021/08/23 00:07:23;;;;;;;3.60;2.40;;;;;;;;;;4974317;28;20131;-82
2021/08/23 00:09:50;;;;;;;3.95;2.33;;;;;;;;;;4974773;28;20043;-82
2021/08/23 00:12:16;;;;;;;4.90;2.72;;;;;;;;;;4974440;28;20026;-83
2021/08/23 00:14:42;;;;;;;2.28;1.92;;;;;;;;;;4973644;28;20097;-82
2021/08/23 00:17:08;;;;;;;4.07;2.28;;;;;;;;;;4974111;28;20027;-81
2021/08/23 00:19:34;;;;;;;3.38;2.13;;;;;;;;;;4973454;28;20487;-81
2021/08/23 00:22:19;;;;;;;2.80;2.13;;;;;;;;;;4974049;28;20022;-81
2021/08/23 00:24:46;;;;;;;4.80;2.25;;;;;;;;;;4954744;29;20027;-82
2021/08/23 00:27:12;;;;;;;4.00;2.78;;;;;;;;;;4954928;29;20053;-82
2021/08/23 00:29:38;;;;;;;2.92;2.10;;;;;;;;;;4969581;28;20086;-81
2021/08/23 00:32:04;;;;;;;4.03;2.67;;;;;;;;;;4974166;28;20023;-81
2021/08/23 00:34:30;;;;;;;3.10;2.45;;;;;;;;;;4973859;28;20110;-82
2021/08/23 00:36:56;;;;;;;3.33;2.15;;;;;;;;;;4974078;28;20111;-81
2021/08/23 00:39:22;;;;;;;4.90;2.53;;;;;;;;;;4973821;28;20131;-82
2021/08/23 00:41:48;;;;;;;3.17;2.08;;;;;;;;;;4974241;28;20031;-81
2021/08/23 00:44:14;;;;;;;3.05;2.20;;;;;;;;;;4972895;28;20138;-82
2021/08/23 00:46:40;;;;;;;4.68;2.10;;;;;;;;;;4973728;28;20368;-84
2021/08/23 00:49:06;;;;;;;3.47;1.90;;;;;;;;;;4973722;28;20099;-84
2021/08/23 00:51:33;;;;;;;3.83;1.98;;;;;;;;;;4973648;28;20031;-83
2021/08/23 00:53:58;;;;;;;3.13;2.58;;;;;;;;;;4973474;28;20392;-85
2021/08/23 00:56:25;;;;;;;5.35;3.15;;;;;;;;;;4973532;28;20031;-82
2021/08/23 00:58:51;;;;;;;4.28;2.50;;;;;;;;;;4973048;28;20034;-81
2021/08/23 01:01:20;;;;;;;5.00;2.35;;;;;;;;;;4956004;28;20399;-82
2021/08/23 01:03:57;;;;;;;2.45;1.85;;;;;;;;;;4956215;28;20026;-83
2021/08/23 01:06:24;;;;;;;2.83;2.08;;;;;;;;;;4973397;28;20038;-83
2021/08/23 01:08:50;;;;;;;5.00;2.45;;;;;;;;;;4973620;28;20133;-83
2021/08/23 01:11:17;;;;;;;2.85;1.90;;;;;;;;;;4973536;28;20034;-83
2021/08/23 01:13:48;;;;;;;3.85;2.05;;;;;;;;;;4972707;28;20031;-81
2021/08/23 01:16:14;;;;;;;4.47;2.30;;;;;;;;;;4972736;28;20479;-83
2021/08/23 01:18:41;;;;;;;4.70;2.33;;;;;;;;;;4955692;28;20027;-84
2021/08/23 01:21:09;;;;;;;4.93;2.55;;;;;;;;;;4955802;28;20395;-83
2021/08/23 01:23:38;;;;;;;3.70;2.30;;;;;;;;;;4972958;28;20026;-81
2021/08/23 01:26:04;;;;;;;4.20;1.95;;;;;;;;;;4973125;28;20039;-82
2021/08/23 01:28:33;;;;;;;4.20;2.20;;;;;;;;;;4955109;28;20019;-82
2021/08/23 01:31:15;;;;;;;2.25;1.70;;;;;;;;;;4972098;28;20064;-82
2021/08/23 01:33:41;;;;;;;3.58;2.13;;;;;;;;;;4972735;28;20023;-83
2021/08/23 01:36:08;;;;;;;3.67;2.42;;;;;;;;;;4972989;28;20037;-83
2021/08/23 01:38:34;;;;;;;4.20;2.15;;;;;;;;;;4972692;28;20080;-82
2021/08/23 01:41:05;;;;;;;4.28;2.20;;;;;;;;;;4972799;28;20034;-83
2021/08/23 01:43:31;;;;;;;3.60;2.35;;;;;;;;;;4971852;28;20073;-82
2021/08/23 01:45:57;;;;;;;2.85;1.90;;;;;;;;;;4971993;28;20030;-83
2021/08/23 01:48:23;;;;;;;3.22;1.98;;;;;;;;;;4972387;28;20030;-84
2021/08/23 01:50:49;;;;;;;4.47;2.50;;;;;;;;;;4955674;28;20551;-80
2021/08/23 01:53:16;;;;;;;2.45;2.03;;;;;;;;;;4972687;28;20043;-84
2021/08/23 01:55:43;;;;;;;4.10;1.95;;;;;;;;;;4972572;28;20110;-84
2021/08/23 01:58:09;;;;;;;3.05;1.95;;;;;;;;;;4972785;28;20110;-85
2021/08/23 02:00:35;;;;;;;3.08;2.03;;;;;;;;;;4971818;28;20574;-85
2021/08/23 02:03:01;;;;;;;3.95;2.28;;;;;;;;;;4972370;28;20031;-85
2021/08/23 02:05:28;;;;;;;3.28;1.80;;;;;;;;;;4972479;28;20077;-83
2021/08/23 02:07:54;;;;;;;4.28;2.00;;;;;;;;;;4972627;28;20029;-82
2021/08/23 02:10:20;;;;;;;2.78;2.10;;;;;;;;;;4972805;28;20038;-83
2021/08/23 02:12:46;;;;;;;4.65;1.85;;;;;;;;;;4954988;28;20035;-82
2021/08/23 02:15:12;;;;;;;2.97;1.50;;;;;;;;;;4971565;28;20590;-82
2021/08/23 02:17:38;;;;;;;2.75;1.77;;;;;;;;;;4954805;28;20033;-80
2021/08/23 02:20:05;;;;;;;3.92;2.00;;;;;;;;;;4972403;28;20479;-84
2021/08/23 02:22:31;;;;;;;2.63;1.80;;;;;;;;;;4954696;28;20101;-82
2021/08/23 02:24:57;;;;;;;3.80;1.77;;;;;;;;;;4972365;28;20031;-82
2021/08/23 02:27:23;;;;;;;3.33;2.30;;;;;;;;;;4972147;28;20383;-81
2021/08/23 02:29:49;;;;;;;4.93;2.22;;;;;;;;;;4971808;28;20043;-80
2021/08/23 02:32:15;;;;;;;3.38;2.05;;;;;;;;;;4971766;28;20038;-82
2021/08/23 02:34:41;;;;;;;3.35;1.88;;;;;;;;;;4971957;28;20407;-82
2021/08/23 02:37:07;;;;;;;3.08;1.90;;;;;;;;;;4972252;28;20074;-81
2021/08/23 02:39:33;;;;;;;4.13;2.17;;;;;;;;;;4971962;28;20027;-81
2021/08/23 02:41:59;;;;;;;4.43;2.03;;;;;;;;;;4972044;28;20110;-81
2021/08/23 02:44:25;;;;;;;6.15;2.28;;;;;;;;;;4974929;28;20101;-81
2021/08/23 02:46:52;;;;;;;5.55;2.33;;;;;;;;;;4975191;28;20038;-80
2021/08/23 02:49:18;;;;;;;3.45;2.10;;;;;;;;;;4958829;28;20039;-81
2021/08/23 02:51:44;;;;;;;4.03;2.08;;;;;;;;;;4975620;28;20472;-81
2021/08/23 02:54:11;;;;;;;7.07;1.98;;;;;;;;;;4975917;28;20034;-81
2021/08/23 02:56:37;;;;;;;4.72;2.40;;;;;;;;;;4958203;28;20178;-81
2021/08/23 02:59:03;;;;;;;4.53;2.38;;;;;;;;;;4975748;28;20402;-81
2021/08/23 03:01:29;;;;;;;5.57;2.40;;;;;;;;;;4974241;28;20030;-81
2021/08/23 03:03:55;;;;;;;3.95;2.10;;;;;;;;;;4975208;28;20030;-82
2021/08/23 03:06:21;;;;;;;4.38;1.67;;;;;;;;;;4975380;28;20102;-81
2021/08/23 03:08:47;;;;;;;3.92;2.30;;;;;;;;;;4975935;28;20105;-81
2021/08/23 03:11:14;;;;;;;4.57;2.30;;;;;;;;;;4975646;28;20131;-80
2021/08/23 03:13:41;;;;;;;3.30;1.85;;;;;;;;;;4975308;28;20038;-81
2021/08/23 03:16:08;;;;;;;4.22;2.17;;;;;;;;;;4974789;28;20059;-81
2021/08/23 03:18:34;;;;;;;4.75;1.90;;;;;;;;;;4975194;28;20031;-80
2021/08/23 03:21:00;;;;;;;3.78;2.17;;;;;;;;;;4975435;28;20037;-81
2021/08/23 03:23:26;;;;;;;5.25;2.72;;;;;;;;;;4975110;28;20088;-80
2021/08/23 03:25:52;;;;;;;2.90;1.98;;;;;;;;;;4975443;28;20042;-80
2021/08/23 03:28:18;;;;;;;4.60;2.28;;;;;;;;;;4975478;28;20410;-80
2021/08/23 03:30:44;;;;;;;3.40;2.17;;;;;;;;;;4974270;28;20495;-80
2021/08/23 03:33:11;;;;;;;4.28;2.22;;;;;;;;;;4974761;28;20051;-81
2021/08/23 03:35:37;;;;;;;3.72;1.90;;;;;;;;;;4974857;28;20479;-82
2021/08/23 03:38:03;;;;;;;4.10;2.38;;;;;;;;;;4975118;28;20475;-80
2021/08/23 03:40:30;;;;;;;3.28;1.90;;;;;;;;;;4957149;28;20109;-81
2021/08/23 03:42:56;;;;;;;3.55;1.85;;;;;;;;;;4974685;28;20035;-80
2021/08/23 03:45:22;;;;;;;4.05;2.10;;;;;;;;;;4957092;28;20030;-81
2021/08/23 03:47:48;;;;;;;6.13;2.28;;;;;;;;;;4974465;28;20034;-81
2021/08/23 03:50:14;;;;;;;3.53;2.42;;;;;;;;;;4957454;28;20146;-81
2021/08/23 03:52:40;;;;;;;5.63;2.40;;;;;;;;;;4974618;28;20023;-81
2021/08/23 03:55:07;;;;;;;4.53;2.30;;;;;;;;;;4974329;28;20030;-81
2021/08/23 03:57:35;;;;;;;6.05;2.67;;;;;;;;;;4974482;28;20035;-82
2021/08/23 04:00:01;;;;;;;3.28;2.17;;;;;;;;;;4974748;28;20113;-81
2021/08/23 04:02:27;;;;;;;3.15;2.10;;;;;;;;;;4973633;28;20030;-81
2021/08/23 04:04:53;;;;;;;3.55;2.17;;;;;;;;;;4974356;28;20061;-81
2021/08/23 04:07:19;;;;;;;3.40;2.03;;;;;;;;;;4974989;28;20110;-82
2021/08/23 04:09:45;;;;;;;5.10;2.70;;;;;;;;;;4974180;28;20118;-81
2021/08/23 04:12:11;;;;;;;4.20;2.30;;;;;;;;;;4974438;28;20027;-81
2021/08/23 04:14:37;;;;;;;3.80;2.20;;;;;;;;;;4974326;28;20054;-81
2021/08/23 04:17:03;;;;;;;4.40;2.67;;;;;;;;;;4973530;28;20043;-81
2021/08/23 04:19:30;;;;;;;3.38;2.00;;;;;;;;;;4974071;28;20406;-81
2021/08/23 04:21:56;;;;;;;3.88;2.10;;;;;;;;;;4974331;28;20031;-81
2021/08/23 04:24:22;;;;;;;6.70;2.60;;;;;;;;;;4974036;28;20034;-81
2021/08/23 04:26:48;;;;;;;4.78;2.67;;;;;;;;;;4974548;28;20022;-81
2021/08/23 04:29:17;;;;;;;3.15;2.10;;;;;;;;;;4974075;28;20033;-81
2021/08/23 04:31:43;;;;;;;3.55;2.70;;;;;;;;;;4973028;28;20058;-81
2021/08/23 04:34:10;;;;;;;4.88;2.60;;;;;;;;;;4973804;28;20031;-81
2021/08/23 04:36:39;;;;;;;5.50;2.30;;;;;;;;;;4973823;28;20106;-81
2021/08/23 04:39:05;;;;;;;3.90;2.05;;;;;;;;;;4974013;28;20023;-80
2021/08/23 04:41:35;;;;;;;5.15;2.38;;;;;;;;;;4973614;28;20030;-80
2021/08/23 04:44:01;;;;;;;4.97;2.30;;;;;;;;;;4973929;28;20106;-81
2021/08/23 04:46:27;;;;;;;3.08;2.00;;;;;;;;;;4973765;28;20114;-80
2021/08/23 04:48:53;;;;;;;4.50;2.38;;;;;;;;;;4972711;28;20058;-80
2021/08/23 04:51:19;;;;;;;3.78;2.05;;;;;;;;;;4974130;28;20027;-80
2021/08/23 04:53:45;;;;;;;2.80;2.10;;;;;;;;;;4973506;28;20391;-80
2021/08/23 04:56:11;;;;;;;4.13;2.55;;;;;;;;;;4973762;28;20026;-80
2021/08/23 04:58:38;;;;;;;4.63;2.42;;;;;;;;;;4973429;28;20476;-80
2021/08/23 05:01:04;;;;;;;4.35;2.33;;;;;;;;;;4973118;28;20033;-79
2021/08/23 05:03:30;;;;;;;4.75;2.42;;;;;;;;;;4972571;28;20031;-80
2021/08/23 05:05:56;;;;;;;3.42;2.20;;;;;;;;;;4954785;28;20117;-80
2021/08/23 05:08:22;;;;;;;3.85;2.40;;;;;;;;;;4973193;28;20035;-80
2021/08/23 05:10:48;;;;;;;2.95;2.25;;;;;;;;;;4973624;28;20039;-80
2021/08/23 05:13:15;;;;;;;3.88;2.47;;;;;;;;;;4973336;28;20026;-80
2021/08/23 05:15:41;;;;;;;4.53;2.33;;;;;;;;;;4973118;28;20042;-80
2021/08/23 05:18:07;;;;;;;3.75;2.10;;;;;;;;;;4972478;28;20097;-80
2021/08/23 05:20:33;;;;;;;3.00;2.00;;;;;;;;;;4972963;28;20030;-80
2021/08/23 05:22:59;;;;;;;4.07;2.45;;;;;;;;;;4973242;28;20023;-80
2021/08/23 05:25:25;;;;;;;3.45;2.20;;;;;;;;;;4972967;28;20073;-80
2021/08/23 05:27:51;;;;;;;4.45;2.60;;;;;;;;;;4973160;28;20030;-80
2021/08/23 05:30:17;;;;;;;3.90;2.35;;;;;;;;;;4972285;28;20046;-80
2021/08/23 05:32:43;;;;;;;5.65;2.58;;;;;;;;;;4972390;28;20169;-81
2021/08/23 05:35:09;;;;;;;3.28;2.05;;;;;;;;;;4972650;28;20055;-80
2021/08/23 05:37:35;;;;;;;6.78;2.33;;;;;;;;;;4955888;28;20442;-80
2021/08/23 05:40:01;;;;;;;3.75;2.28;;;;;;;;;;4972896;28;20027;-80
2021/08/23 05:42:27;;;;;;;4.57;2.45;;;;;;;;;;4972533;28;20035;-80
2021/08/23 05:44:54;;;;;;;3.92;2.05;;;;;;;;;;4972828;28;20475;-80
2021/08/23 05:47:21;;;;;;;4.10;2.13;;;;;;;;;;4973118;28;20435;-80
2021/08/23 05:49:47;;;;;;;4.45;2.33;;;;;;;;;;4971823;28;20411;-80
2021/08/23 05:52:13;;;;;;;5.05;2.30;;;;;;;;;;4972695;28;20058;-80
2021/08/23 05:54:40;;;;;;;3.92;1.90;;;;;;;;;;4972512;28;20022;-80
2021/08/23 05:57:06;;;;;;;5.45;2.20;;;;;;;;;;4972639;28;20471;-80
2021/08/23 05:59:32;;;;;;;3.67;1.92;;;;;;;;;;4972453;28;20055;-80
2021/08/23 06:01:58;;;;;;;4.13;1.90;;;;;;;;;;4972623;28;20026;-80
2021/08/23 06:04:25;;;;;;;4.25;2.25;;;;;;;;;;4971512;28;20034;-80
2021/08/23 06:06:51;;;;;;;5.03;1.80;;;;;;;;;;4972313;28;20035;-80
2021/08/23 06:09:18;;;;;;;4.35;2.38;;;;;;;;;;4955381;28;20041;-80
2021/08/23 06:11:44;;;;;;;4.15;2.05;;;;;;;;;;4971972;28;20499;-80
2021/08/23 06:14:10;;;;;;;3.97;2.10;;;;;;;;;;4971901;28;20554;-80
2021/08/23 06:16:36;;;;;;;4.07;2.22;;;;;;;;;;4971741;28;20082;-79
2021/08/23 06:19:02;;;;;;;3.88;2.03;;;;;;;;;;4971075;28;20030;-81
2021/08/23 06:21:29;;;;;;;4.70;2.33;;;;;;;;;;4971785;28;20114;-81
2021/08/23 06:23:55;;;;;;;3.22;1.90;;;;;;;;;;4972072;28;20495;-81
2021/08/23 06:26:21;;;;;;;2.35;1.70;;;;;;;;;;4972601;28;20114;-79
2021/08/23 06:28:47;;;;;;;2.97;1.95;;;;;;;;;;4955128;28;20506;-80
2021/08/23 06:31:13;;;;;;;4.55;2.40;;;;;;;;;;4972293;28;20127;-80
2021/08/23 06:33:39;;;;;;;3.95;2.20;;;;;;;;;;4971612;28;20105;-81
2021/08/23 06:36:05;;;;;;;4.45;2.58;;;;;;;;;;4953661;28;20531;-81
2021/08/23 06:38:31;;;;;;;5.95;2.58;;;;;;;;;;4972017;28;20019;-82
2021/08/23 06:40:57;;;;;;;6.40;2.67;;;;;;;;;;4954728;28;20407;-79
2021/08/23 06:43:23;;;;;;;7.13;2.78;;;;;;;;;;4973577;28;20077;-79
2021/08/23 06:45:49;;;;;;;7.28;3.30;;;;;;;;;;4954937;28;20040;-76
2021/08/23 06:48:15;;;;;;;7.65;4.47;;;;;;;;;;4971604;28;20399;-81
2021/08/23 06:50:41;;;;;;;9.43;4.03;;;;;;;;;;4971031;28;20078;-83
2021/08/23 06:53:07;;;;;;;8.77;4.38;;;;;;;;;;4972084;28;20483;-79
2021/08/23 06:55:34;;;;;;;10.45;4.20;;;;;;;;;;4971886;28;20474;-78
2021/08/23 06:58:03;;;;;;;10.23;4.60;;;;;;;;;;4972068;28;20097;-78
2021/08/23 07:00:29;;;;;;;9.68;4.45;;;;;;;;;;4971008;28;20034;-77
2021/08/23 07:02:55;;;;;;;7.13;3.67;;;;;;;;;;4971607;28;20019;-77
2021/08/23 07:05:22;;;;;;;9.43;4.43;;;;;;;;;;4969226;28;20062;-76
2021/08/23 07:07:48;;;;;;;7.13;4.50;;;;;;;;;;4964432;28;20047;-77
2021/08/23 07:10:14;;;;;;;11.73;5.25;;;;;;;;;;4971847;28;20512;-77
2021/08/23 07:12:40;;;;;;;9.45;5.10;;;;;;;;;;4971160;28;20068;-77
2021/08/23 07:15:07;;;;;;;10.15;5.63;;;;;;;;;;4971314;28;20082;-79
2021/08/23 07:17:33;;;;;;;15.10;6.32;;;;;;;;;;4970739;28;20027;-79
2021/08/23 07:19:59;;;;;;;10.90;5.38;;;;;;;;;;4971855;28;20023;-78
2021/08/23 07:22:25;;;;;;;9.32;4.70;;;;;;;;;;4971606;28;20033;-78
2021/08/23 07:24:51;;;;;;;10.13;5.45;;;;;;;;;;4971788;28;20027;-79
2021/08/23 07:27:18;;;;;;;8.98;4.50;;;;;;;;;;4972116;28;20149;-78
2021/08/23 07:29:44;;;;;;;13.00;4.68;;;;;;;;;;4972560;28;20110;-79
2021/08/23 07:32:10;;;;;;;8.43;5.00;;;;;;;;;;4973535;28;20033;-78
2021/08/23 07:34:36;;;;;;;8.77;4.28;;;;;;;;;;4973694;28;20034;-78
2021/08/23 07:37:02;;;;;;;10.93;4.28;;;;;;;;;;4974274;28;20038;-78
2021/08/23 07:39:28;;;;;;;9.13;4.63;;;;;;;;;;4974593;28;20027;-78
2021/08/23 07:41:54;;;;;;;7.93;4.43;;;;;;;;;;4972812;28;20439;-79
2021/08/23 07:44:21;;;;;;;6.82;4.22;;;;;;;;;;4954118;29;20134;-78
2021/08/23 07:46:47;;;;;;;6.07;3.80;;;;;;;;;;4955593;29;20113;-79
2021/08/23 07:49:13;;;;;;;9.32;3.65;;;;;;;;;;4957477;28;20396;-78
2021/08/23 07:51:40;;;;;;;8.60;4.28;;;;;;;;;;4971380;28;20030;-79
2021/08/23 07:54:06;;;;;;;7.38;3.70;;;;;;;;;;4972560;28;20066;-80
2021/08/23 07:56:32;;;;;;;7.78;3.35;;;;;;;;;;4955050;29;20054;-80
2021/08/23 07:58:58;;;;;;;6.82;3.35;;;;;;;;;;4955207;29;20027;-83
2021/08/23 08:01:25;;;;;;;4.97;3.55;;;;;;;;;;4954861;28;20110;-78
2021/08/23 08:03:51;;;;;;;5.75;3.45;;;;;;;;;;4970901;28;20410;-78
2021/08/23 08:06:18;;;;;;;7.75;3.38;;;;;;;;;;4963306;28;20033;-78
2021/08/23 08:08:44;;;;;;;8.18;3.10;;;;;;;;;;4972401;28;20050;-78
2021/08/23 08:11:10;;;;;;;8.38;3.40;;;;;;;;;;4973017;28;20062;-78
2021/08/23 08:13:36;;;;;;;5.82;3.05;;;;;;;;;;4973761;28;20069;-79
2021/08/23 08:16:02;;;;;;;9.48;3.10;;;;;;;;;;4974383;28;20065;-78
2021/08/23 08:18:28;;;;;;;8.50;2.72;;;;;;;;;;4973497;28;20030;-78
2021/08/23 08:20:54;;;;;;;5.10;3.15;;;;;;;;;;4960004;28;20028;-78
2021/08/23 08:23:20;;;;;;;4.43;2.65;;;;;;;;;;4957490;28;20035;-79
2021/08/23 08:25:47;;;;;;;6.10;3.30;;;;;;;;;;4974351;28;20495;-78
2021/08/23 08:28:13;;;;;;;8.32;3.22;;;;;;;;;;4973487;28;20495;-78
2021/08/23 08:30:40;;;;;;;3.92;2.92;;;;;;;;;;4967122;28;20046;-78
2021/08/23 08:33:06;;;;;;;5.40;3.00;;;;;;;;;;4972843;28;20034;-78
2021/08/23 08:35:32;;;;;;;4.68;2.20;;;;;;;;;;4973224;28;20173;-78
2021/08/23 08:37:58;;;;;;;4.40;2.88;;;;;;;;;;4972976;28;20025;-76
2021/08/23 08:40:24;;;;;;;4.65;2.38;;;;;;;;;;4967987;28;20099;-79
2021/08/23 08:42:51;;;;;;;7.70;2.72;;;;;;;;;;4975717;28;20085;-80
2021/08/23 08:45:17;;;;;;;5.80;3.25;;;;;;;;;;4977674;28;20030;-80
2021/08/23 08:47:44;;;;;;;5.00;2.70;;;;;;;;;;4972397;28;20019;-79
2021/08/23 08:50:13;;;;;;;6.20;3.25;;;;;;;;;;4973841;28;20046;-81
2021/08/23 08:52:39;;;;;;;5.00;2.60;;;;;;;;;;4973613;28;20086;-81
2021/08/23 08:55:06;;;;;;;4.40;2.78;;;;;;;;;;4973461;28;20031;-80
2021/08/23 08:57:32;;;;;;;4.03;2.70;;;;;;;;;;4972396;28;20039;-81
2021/08/23 08:59:58;;;;;;;5.28;3.03;;;;;;;;;;4972978;28;20035;-80
2021/08/23 09:02:24;;;;;;;6.38;3.40;;;;;;;;;;4973417;28;20498;-81
2021/08/23 09:04:50;;;;;;;6.50;3.05;;;;;;;;;;4972845;28;20041;-80
2021/08/23 09:07:16;;;;;;;6.10;2.95;;;;;;;;;;4954051;29;20031;-80
2021/08/23 09:09:42;;;;;;;5.53;2.92;;;;;;;;;;4967543;28;20186;-80
2021/08/23 09:12:09;;;;;;;9.68;2.83;;;;;;;;;;4973372;28;20054;-80
2021/08/23 09:14:55;;;;;;;3.85;2.50;;;;;;;;;;4972558;28;20128;-80
2021/08/23 09:17:22;;;;;;;6.28;2.65;;;;;;;;;;4972177;28;20069;-79
2021/08/23 09:19:57;;;;;;;5.10;2.75;;;;;;;;;;4973034;28;20035;-79
2021/08/23 09:22:24;;;;;;;3.45;2.10;;;;;;;;;;4962851;28;20031;-79
2021/08/23 09:24:50;;;;;;;5.30;2.63;;;;;;;;;;4972694;28;20085;-79
2021/08/23 09:27:17;;;;;;;3.80;2.47;;;;;;;;;;4972903;28;20110;-79
2021/08/23 09:29:56;;;;;;;4.03;2.58;;;;;;;;;;4970985;28;20034;-79
2021/08/23 09:32:26;;;;;;;4.00;2.45;;;;;;;;;;4959996;28;20395;-80
2021/08/23 09:34:52;;;;;;;4.78;2.78;;;;;;;;;;4953691;28;20029;-80
2021/08/23 09:37:19;;;;;;;5.30;2.90;;;;;;;;;;4965948;28;20031;-79
2021/08/23 09:39:45;;;;;;;4.43;2.53;;;;;;;;;;4972625;28;20077;-80
2021/08/23 09:42:15;;;;;;;4.55;2.80;;;;;;;;;;4972226;28;20045;-80
2021/08/23 09:44:42;;;;;;;6.72;3.28;;;;;;;;;;4971995;28;20041;-81
2021/08/23 09:47:09;;;;;;;3.92;2.92;;;;;;;;;;4972255;28;20031;-80
2021/08/23 09:49:39;;;;;;;3.90;2.50;;;;;;;;;;4971857;28;20049;-80
2021/08/23 09:52:06;;;;;;;4.60;2.45;;;;;;;;;;4964857;28;20027;-79
2021/08/23 09:54:32;;;;;;;4.55;2.53;;;;;;;;;;4970489;28;20037;-80
2021/08/23 09:56:58;;;;;;;4.57;2.70;;;;;;;;;;4972235;28;20031;-80
2021/08/23 09:59:25;;;;;;;4.75;2.47;;;;;;;;;;4972178;28;20099;-79
2021/08/23 10:01:53;;;;;;;4.90;3.10;;;;;;;;;;4972082;28;20030;-80
2021/08/23 10:04:20;;;;;;;4.68;2.47;;;;;;;;;;4971645;28;20031;-82
2021/08/23 10:06:47;;;;;;;4.22;2.70;;;;;;;;;;4971653;28;20026;-83
2021/08/23 10:09:17;;;;;;;5.10;2.97;;;;;;;;;;4971685;28;20562;-81
2021/08/23 10:11:43;;;;;;;6.10;2.90;;;;;;;;;;4972422;28;20035;-80
2021/08/23 10:14:09;;;;;;;5.38;3.05;;;;;;;;;;4973191;28;20053;-81
2021/08/23 10:16:35;;;;;;;5.45;2.53;;;;;;;;;;4971080;28;20033;-80
2021/08/23 10:19:02;;;;;;;5.07;2.63;;;;;;;;;;4971974;28;20039;-81
2021/08/23 10:21:29;;;;;;;8.18;2.90;;;;;;;;;;4970532;28;20022;-81
2021/08/23 10:23:55;;;;;;;6.82;2.70;;;;;;;;;;4969985;28;20035;-81
2021/08/23 10:26:21;;;;;;;5.05;2.60;;;;;;;;;;4963706;28;20038;-81
2021/08/23 10:28:48;;;;;;;5.78;2.92;;;;;;;;;;4964127;28;20031;-80
2021/08/23 10:31:15;;;;;;;6.13;3.17;;;;;;;;;;4963099;28;20030;-83
2021/08/23 10:33:42;;;;;;;5.63;2.97;;;;;;;;;;4959718;28;20530;-83
2021/08/23 10:36:11;;;;;;;6.18;2.72;;;;;;;;;;4961726;28;20074;-82
2021/08/23 10:38:38;;;;;;;6.63;3.97;;;;;;;;;;4956939;28;20028;-81
2021/08/23 10:41:14;;;;;;;24.95;12.65;;;;;;;;;;4959332;28;20026;-81
2021/08/23 10:43:46;;;;;;;27.80;12.55;;;;;;;;;;4961357;28;20022;-82
2021/08/23 10:46:39;;;;;;;110.60;47.80;;;;;;;;;;4962887;28;20027;-82
2021/08/23 10:49:05;;;;;;;80.32;38.55;;;;;;;;;;4962260;28;20570;-81
2021/08/23 10:51:38;;;;;;;73.03;36.47;;;;;;;;;;4960940;28;20097;-83
2021/08/23 10:54:20;;;;;;;77.35;36.80;;;;;;;;;;4963658;28;20034;-81
2021/08/23 10:56:46;;;;;;;66.82;32.33;;;;;;;;;;4962662;28;20027;-80
2021/08/23 10:59:21;;;;;;;57.30;28.08;;;;;;;;;;4960598;28;20018;-80
2021/08/23 11:01:57;;;;;;;62.53;30.02;;;;;;;;;;4959514;28;20094;-80
2021/08/23 11:04:31;;;;;;;47.30;24.85;;;;;;;;;;4963263;28;20429;-80
2021/08/23 11:06:57;;;;;;;50.28;22.60;;;;;;;;;;4968828;28;20038;-80
2021/08/23 11:09:31;;;;;;;45.60;21.27;;;;;;;;;;4973217;28;20466;-81
2021/08/23 11:12:05;;;;;;;58.47;26.55;;;;;;;;;;4976106;28;20567;-80
2021/08/23 11:14:41;;;;;;;42.03;21.13;;;;;;;;;;4975486;28;20027;-80
2021/08/23 11:17:07;;;;;;;36.08;18.60;;;;;;;;;;4975352;28;20039;-81
2021/08/23 11:19:37;;;;;;;30.83;15.45;;;;;;;;;;4976078;28;20027;-81
2021/08/23 11:22:03;;;;;;;32.78;15.35;;;;;;;;;;4975701;28;20038;-81
2021/08/23 11:24:30;;;;;;;31.95;15.45;;;;;;;;;;4974704;28;20544;-81
2021/08/23 11:27:00;;;;;;;31.50;15.52;;;;;;;;;;4974649;28;20442;-82
2021/08/23 11:29:27;;;;;;;33.67;15.80;;;;;;;;;;4977874;28;20034;-82
2021/08/23 11:32:00;;;;;;;27.42;14.98;;;;;;;;;;4960700;28;20407;-82
2021/08/23 11:34:27;;;;;;;24.35;14.05;;;;;;;;;;4975281;28;20106;-80
2021/08/23 11:36:53;;;;;;;27.92;13.45;;;;;;;;;;4975311;28;20518;-81
2021/08/23 11:39:19;;;;;;;21.95;11.88;;;;;;;;;;4974633;28;20027;-80
2021/08/23 11:41:55;;;;;;;26.20;13.02;;;;;;;;;;4974390;28;20027;-80
2021/08/23 11:44:21;;;;;;;23.83;11.85;;;;;;;;;;4974087;28;20034;-79
2021/08/23 11:46:54;;;;;;;22.45;11.55;;;;;;;;;;4975292;28;20030;-80
2021/08/23 11:49:30;;;;;;;20.48;10.48;;;;;;;;;;4975392;28;20078;-79
2021/08/23 11:51:57;;;;;;;20.25;10.32;;;;;;;;;;4974347;28;20109;-79
2021/08/23 11:54:23;;;;;;;21.73;10.63;;;;;;;;;;4974440;28;20027;-80
2021/08/23 11:56:49;;;;;;;16.70;9.32;;;;;;;;;;4969057;28;20509;-80
2021/08/23 11:59:15;;;;;;;18.83;10.40;;;;;;;;;;4955881;29;20059;-79
2021/08/23 12:01:41;;;;;;;19.35;9.73;;;;;;;;;;4955399;29;20434;-78
2021/08/23 12:04:07;;;;;;;21.15;10.10;;;;;;;;;;4955418;29;20034;-78
2021/08/23 12:06:34;;;;;;;16.92;9.48;;;;;;;;;;4955117;29;20027;-78
2021/08/23 12:09:00;;;;;;;20.90;9.68;;;;;;;;;;4970309;28;20027;-78
2021/08/23 12:11:26;;;;;;;18.05;9.10;;;;;;;;;;4974375;28;20026;-77
2021/08/23 12:13:52;;;;;;;17.55;9.07;;;;;;;;;;4974516;28;20030;-78
2021/08/23 12:16:18;;;;;;;18.52;9.43;;;;;;;;;;4974421;28;20030;-78
2021/08/23 12:18:44;;;;;;;15.57;8.35;;;;;;;;;;4974114;28;20045;-78
2021/08/23 12:21:30;;;;;;;18.17;9.07;;;;;;;;;;4972750;28;20026;-78
2021/08/23 12:23:59;;;;;;;15.23;8.07;;;;;;;;;;4973764;28;20062;-78
2021/08/23 12:26:40;;;;;;;15.68;8.82;;;;;;;;;;4973971;28;20026;-78
2021/08/23 12:29:22;;;;;;;17.20;8.70;;;;;;;;;;4974255;28;20039;-78
2021/08/23 12:32:14;;;;;;;15.45;7.60;;;;;;;;;;4974436;28;20634;-79
2021/08/23 12:34:42;;;;;;;17.33;7.95;;;;;;;;;;4971432;28;20039;-79
2021/08/23 12:37:08;;;;;;;13.48;7.65;;;;;;;;;;4974149;28;20034;-77
2021/08/23 12:39:34;;;;;;;14.90;7.18;;;;;;;;;;4972933;28;20117;-78
2021/08/23 12:42:02;;;;;;;13.07;7.57;;;;;;;;;;4973988;28;20037;-78
2021/08/23 12:44:28;;;;;;;14.90;7.80;;;;;;;;;;4973643;28;20031;-77
2021/08/23 12:46:54;;;;;;;13.25;6.97;;;;;;;;;;4974176;28;20059;-78
2021/08/23 12:49:20;;;;;;;11.93;6.65;;;;;;;;;;4974079;28;20085;-77
2021/08/23 12:51:48;;;;;;;14.15;7.00;;;;;;;;;;4974050;28;20030;-78
2021/08/23 12:54:14;;;;;;;12.90;7.13;;;;;;;;;;4973312;28;20048;-79
2021/08/23 12:56:41;;;;;;;14.50;7.88;;;;;;;;;;4973171;28;20058;-78
2021/08/23 12:59:07;;;;;;;14.60;7.57;;;;;;;;;;4972850;28;20113;-78
2021/08/23 13:01:34;;;;;;;13.98;7.30;;;;;;;;;;4972952;28;20023;-78
2021/08/23 13:04:00;;;;;;;13.07;6.80;;;;;;;;;;4973289;28;20109;-78
2021/08/23 13:06:26;;;;;;;12.63;6.80;;;;;;;;;;4973040;28;20030;-78
2021/08/23 13:08:53;;;;;;;13.20;6.47;;;;;;;;;;4973109;28;20085;-77
2021/08/23 13:11:19;;;;;;;9.93;6.35;;;;;;;;;;4972729;28;20041;-77
2021/08/23 13:13:45;;;;;;;12.40;5.95;;;;;;;;;;4972773;28;20475;-78
2021/08/23 13:16:11;;;;;;;11.55;5.93;;;;;;;;;;4973141;28;20403;-78
2021/08/23 13:18:38;;;;;;;11.02;5.53;;;;;;;;;;4972710;28;20054;-79
2021/08/23 13:21:04;;;;;;;8.02;5.20;;;;;;;;;;4972755;28;20019;-78
2021/08/23 13:23:30;;;;;;;12.70;5.80;;;;;;;;;;4972203;28;20035;-78
2021/08/23 13:25:56;;;;;;;10.70;5.57;;;;;;;;;;4971951;28;20031;-79
2021/08/23 13:28:22;;;;;;;11.07;5.25;;;;;;;;;;4970957;28;20039;-78
2021/08/23 13:30:48;;;;;;;11.93;5.50;;;;;;;;;;4972328;28;20080;-78
2021/08/23 13:33:15;;;;;;;8.43;4.60;;;;;;;;;;4972521;28;20054;-78
2021/08/23 13:35:41;;;;;;;10.52;5.30;;;;;;;;;;4971798;28;20391;-78
2021/08/23 13:38:09;;;;;;;9.00;5.43;;;;;;;;;;4958445;28;20098;-78
2021/08/23 13:40:36;;;;;;;10.40;5.75;;;;;;;;;;4961202;28;20056;-77
2021/08/23 13:43:06;;;;;;;8.27;4.72;;;;;;;;;;4971558;28;20094;-78
2021/08/23 13:45:32;;;;;;;7.47;4.40;;;;;;;;;;4972454;28;20035;-78
2021/08/23 13:47:58;;;;;;;8.88;4.88;;;;;;;;;;4972017;28;20431;-77
2021/08/23 13:50:24;;;;;;;8.00;4.15;;;;;;;;;;4971525;28;20297;-78
2021/08/23 13:52:50;;;;;;;8.88;4.70;;;;;;;;;;4975915;28;20516;-79
2021/08/23 13:55:16;;;;;;;9.77;4.78;;;;;;;;;;4971287;28;20025;-79
2021/08/23 13:57:42;;;;;;;8.13;4.32;;;;;;;;;;4972028;28;20101;-79
2021/08/23 14:00:08;;;;;;;7.30;4.25;;;;;;;;;;4972247;28;20073;-79
2021/08/23 14:02:34;;;;;;;9.50;4.28;;;;;;;;;;4971991;28;20056;-79
2021/08/23 14:05:00;;;;;;;6.50;4.20;;;;;;;;;;4971090;28;20117;-79
2021/08/23 14:07:26;;;;;;;7.85;4.15;;;;;;;;;;4971551;28;20023;-79
2021/08/23 14:09:52;;;;;;;6.18;4.20;;;;;;;;;;4971466;28;20030;-79
2021/08/23 14:12:18;;;;;;;6.30;3.97;;;;;;;;;;4967546;28;20030;-79
2021/08/23 14:14:44;;;;;;;6.35;3.97;;;;;;;;;;4970538;28;20073;-79
2021/08/23 14:17:10;;;;;;;7.22;3.63;;;;;;;;;;4972105;28;20092;-79
2021/08/23 14:19:36;;;;;;;4.45;3.47;;;;;;;;;;4971746;28;20058;-79
2021/08/23 14:22:03;;;;;;;6.95;3.45;;;;;;;;;;4972138;28;20158;-79
2021/08/23 14:24:29;;;;;;;7.20;3.70;;;;;;;;;;4970632;28;20031;-78
2021/08/23 14:26:56;;;;;;;6.55;3.50;;;;;;;;;;4971782;28;20022;-79
2021/08/23 14:29:22;;;;;;;5.15;3.15;;;;;;;;;;4966676;28;20032;-78
2021/08/23 14:31:48;;;;;;;6.65;3.80;;;;;;;;;;4952964;29;20114;-77
2021/08/23 14:34:14;;;;;;;6.50;4.03;;;;;;;;;;4969328;28;20027;-78
2021/08/23 14:36:40;;;;;;;5.75;3.85;;;;;;;;;;4971644;28;20055;-78